UKKK

Kiev Zhuliany International Airport

Kiev, Ukraine
TAF UKKK 181102Z 1812/1912 08004G09MPS 9999 SCT040 TX30/1912Z TN18/1902Z TEMPO 1812/1818 06008G13MPS SCT030CB PROB40 TEMPO 1812/1818 VRB10G16MPS 1500 TSRA BKN020CB BECMG 1818/1820 VRB01MPS TEMPO 1820/1905 2000 BR SCT006
Issued Valid From Valid To
Jun-18 @ 11:02 UTC
(2 hours ago)
Jun-18 @ 12:00 UTC
(an hour ago)
Jun-19 @ 12:00 UTC
(in 23 hours)
Jun-18 @ 12:00 to Jun-18 @ 18:00
TAF UKKK 181102Z 1812/1912 08004G09MPS 9999 SCT040 TX30/1912Z TN18/1902Z
Wind Visibility Clouds
80° at 8 knots
 Gusting to 17 knots
10,000+ meters
  • Scattered at 4,000' AGL
Temporary Jun-18 @ 12:00 to Jun-18 @ 18:00
TEMPO 1812/1818 06008G13MPS SCT030CB
Wind Clouds
60° at 16 knots
 Gusting to 25 knots
  • Scattered at 3,000' AGL
Temporary  (Probability 40%) Jun-18 @ 12:00 to Jun-18 @ 18:00
PROB40 TEMPO 1812/1818 VRB10G16MPS 1500 TSRA BKN020CB
Wind Visibility Clouds Conditions
Variable at 19 knots
 Gusting to 31 knots
1,497 meters
  • Broken at 2,000' AGL
  • Thunderstorm
  • Rain
Becoming Jun-18 @ 18:00 to Jun-19 @ 12:00
BECMG 1818/1820 VRB01MPS
Wind Visibility Clouds
Variable at 2 knots 10,000+ meters
  • Scattered at 4,000' AGL
Temporary Jun-18 @ 20:00 to Jun-19 @ 05:00
TEMPO 1820/1905 2000 BR SCT006
Visibility Clouds Conditions
1,996 meters
  • Scattered at 600' AGL
  • Mist
TAF UKKK 181102Z 1812/1912 08004G09MPS 9999 SCT040 TX30/1912Z TN18/1902Z TEMPO 1812/1818 06008G13MPS SCT030CB PROB40 TEMPO 1812/1818 VRB10G16MPS 1500 TSRA BKN020CB BECMG 1818/1820 VRB01MPS TEMPO 1820/1905 2000 BR SCT006
Issued Jun-18 @ 11:02 UTC
(2 hours ago)
Valid From Jun-18 @ 12:00 UTC
(an hour ago)
Valid To Jun-19 @ 12:00 UTC
(in 23 hours)
Jun-18 @ 12:00 - Jun-18 @ 18:00
Wind Visibility
80° at 8 knots
 Gusting to 17 knots
10,000+ meters
Clouds
  • Scattered at 4,000' AGL
Temporary Jun-18 @ 12:00 - Jun-18 @ 18:00
Wind
60° at 16 knots
 Gusting to 25 knots
Clouds
  • Scattered at 3,000' AGL
Probability 40% Temporary Jun-18 @ 12:00 - Jun-18 @ 18:00
Wind Visibility
Variable at 19 knots
 Gusting to 31 knots
1,497 meters
Clouds
  • Broken at 2,000' AGL
Conditions
  • Thunderstorm
  • Rain
Becoming Jun-18 @ 18:00 - Jun-19 @ 12:00
Wind Visibility
Variable at 2 knots 10,000+ meters
Clouds
  • Scattered at 4,000' AGL
Temporary Jun-18 @ 20:00 - Jun-19 @ 05:00
Clouds
  • Scattered at 600' AGL
Conditions
  • Mist